createdAt,value
2017-11-10T00:00:55.975Z,5.52
2017-11-10T00:01:56.273Z,5.51
2017-11-10T00:02:56.275Z,5.49
2017-11-10T00:03:56.255Z,5.51
2017-11-10T00:04:56.238Z,5.44
2017-11-10T00:05:56.230Z,5.51
2017-11-10T00:06:56.205Z,5.48
2017-11-10T00:07:56.534Z,5.46
2017-11-10T00:08:55.840Z,5.55
2017-11-10T00:09:56.164Z,5.49
2017-11-10T00:10:55.807Z,5.48
2017-11-10T00:11:56.488Z,5.51
2017-11-10T00:12:56.119Z,5.48
2017-11-10T00:13:56.111Z,5.44
2017-11-10T00:14:56.099Z,5.48
2017-11-10T00:15:56.422Z,5.41
2017-11-10T00:16:55.747Z,5.41
2017-11-10T00:17:56.049Z,5.49
2017-11-10T00:18:55.695Z,5.44
2017-11-10T00:19:55.689Z,5.39
2017-11-10T00:20:55.689Z,5.44
2017-11-10T00:21:55.994Z,5.36
2017-11-10T00:22:55.638Z,5.49
2017-11-10T00:23:55.966Z,5.37
2017-11-10T00:24:55.952Z,5.41
2017-11-10T00:25:55.971Z,5.46
2017-11-10T00:26:56.286Z,5.46
2017-11-10T00:27:56.269Z,5.44
2017-11-10T00:28:55.554Z,5.41
2017-11-10T00:29:55.881Z,5.42
2017-11-10T00:30:56.221Z,5.52
2017-11-10T00:31:56.200Z,5.41
2017-11-10T00:32:55.841Z,5.49
2017-11-10T00:33:56.190Z,5.46
2017-11-10T00:34:55.812Z,5.44
2017-11-10T00:35:55.462Z,5.42
2017-11-10T00:36:56.138Z,5.39
2017-11-10T00:37:55.775Z,5.37
2017-11-10T00:38:56.101Z,5.37
2017-11-10T00:39:55.753Z,5.39
2017-11-10T00:40:55.389Z,5.42
2017-11-10T00:41:55.715Z,5.41
2017-11-10T00:42:56.061Z,5.44
2017-11-10T00:43:55.707Z,5.39
2017-11-10T00:44:55.332Z,5.39
2017-11-10T00:45:55.676Z,5.52
2017-11-10T00:46:55.643Z,5.42
2017-11-10T00:47:55.980Z,5.39
2017-11-10T00:48:55.277Z,5.37
2017-11-10T00:49:55.603Z,5.36
2017-11-10T00:50:55.250Z,5.42
2017-11-10T00:51:55.920Z,5.42
2017-11-10T00:52:55.561Z,5.55
2017-11-10T00:53:55.548Z,5.41
2017-11-10T00:54:55.528Z,5.44
2017-11-10T00:55:55.882Z,5.39
2017-11-10T00:56:55.859Z,5.49
2017-11-10T00:57:55.499Z,5.46
2017-11-10T00:58:55.822Z,5.49
2017-11-10T00:59:55.466Z,5.41
2017-11-10T01:00:55.457Z,5.41
2017-11-10T01:01:55.788Z,5.39
2017-11-10T01:02:55.088Z,5.44
2017-11-10T01:03:55.749Z,5.42
2017-11-10T01:04:55.399Z,5.48
2017-11-10T01:05:55.377Z,5.36
2017-11-10T01:06:55.021Z,5.42
2017-11-10T01:07:55.031Z,5.41
2017-11-10T01:08:55.339Z,5.44
2017-11-10T01:09:55.333Z,5.44
2017-11-10T01:10:55.662Z,5.45
2017-11-10T01:11:54.953Z,5.41
2017-11-10T01:12:55.621Z,5.42
2017-11-10T01:13:54.932Z,5.37
2017-11-10T01:14:54.913Z,5.39
2017-11-10T01:15:55.587Z,5.36
2017-11-10T01:16:54.884Z,5.39
2017-11-10T01:17:55.219Z,5.34
2017-11-10T01:18:55.197Z,5.36
2017-11-10T01:19:54.842Z,5.42
2017-11-10T01:20:54.827Z,5.36
2017-11-10T01:21:54.813Z,5.37
2017-11-10T01:22:55.138Z,5.44
2017-11-10T01:23:55.493Z,5.41
2017-11-10T01:24:55.125Z,5.39
2017-11-10T01:25:54.764Z,5.41
2017-11-10T01:26:55.443Z,5.41
2017-11-10T01:27:55.423Z,5.45
2017-11-10T01:28:55.403Z,5.41
2017-11-10T01:29:55.066Z,5.37
2017-11-10T01:30:55.037Z,5.46
2017-11-10T01:31:55.027Z,5.44
2017-11-10T01:32:55.038Z,5.36
2017-11-10T01:33:54.983Z,5.34
2017-11-10T01:34:54.990Z,5.34
2017-11-10T01:35:55.311Z,5.36
2017-11-10T01:36:54.957Z,5.36
2017-11-10T01:37:55.272Z,5.44
2017-11-10T01:38:55.290Z,5.41
2017-11-10T01:39:54.942Z,5.45
2017-11-10T01:40:54.544Z,5.3
2017-11-10T01:41:55.231Z,5.39
2017-11-10T01:42:54.515Z,5.39
2017-11-10T01:43:54.502Z,5.42
2017-11-10T01:44:54.836Z,5.44
2017-11-10T01:45:54.818Z,5.44
2017-11-10T01:46:55.149Z,5.51
2017-11-10T01:47:54.445Z,5.45
2017-11-10T01:48:54.792Z,5.44
2017-11-10T01:49:54.759Z,5.37
2017-11-10T01:50:54.746Z,5.44
2017-11-10T01:51:54.734Z,5.37
2017-11-10T01:52:54.717Z,5.37
2017-11-10T01:53:54.703Z,5.48
2017-11-10T01:54:55.041Z,5.41
2017-11-10T01:55:54.335Z,5.44
2017-11-10T01:56:54.692Z,5.39
2017-11-10T01:57:54.654Z,5.36
2017-11-10T01:58:54.980Z,5.41
2017-11-10T01:59:54.633Z,5.36
2017-11-10T02:00:54.947Z,5.42
2017-11-10T02:01:54.248Z,5.37
2017-11-10T02:02:54.579Z,5.37
2017-11-10T02:03:54.560Z,5.39
2017-11-10T02:04:54.206Z,5.42
2017-11-10T02:05:54.921Z,5.37
2017-11-10T02:06:54.181Z,5.37
2017-11-10T02:07:54.163Z,5.45
2017-11-10T02:08:54.501Z,5.49
2017-11-10T02:09:54.136Z,5.48
2017-11-10T02:10:54.162Z,5.42
2017-11-10T02:11:54.446Z,5.41
2017-11-10T02:12:54.435Z,5.37
2017-11-10T02:13:54.431Z,5.51
2017-11-10T02:14:54.062Z,5.45
2017-11-10T02:15:54.424Z,5.36
2017-11-10T02:16:54.397Z,5.48
2017-11-10T02:17:54.362Z,5.36
2017-11-10T02:18:54.011Z,5.48
2017-11-10T02:19:53.994Z,5.42
2017-11-10T02:20:54.046Z,5.49
2017-11-10T02:21:53.966Z,5.44
2017-11-10T02:22:54.303Z,5.37
2017-11-10T02:23:53.939Z,5.39
2017-11-10T02:24:53.920Z,5.41
2017-11-10T02:25:53.909Z,5.39
2017-11-10T02:26:54.235Z,5.41
2017-11-10T02:27:54.220Z,5.42
2017-11-10T02:28:54.556Z,5.45
2017-11-10T02:29:54.216Z,5.39
2017-11-10T02:30:53.863Z,5.39
2017-11-10T02:31:54.519Z,5.39
2017-11-10T02:32:54.522Z,5.36
2017-11-10T02:33:54.141Z,5.39
2017-11-10T02:34:53.784Z,5.33
2017-11-10T02:35:54.135Z,5.36
2017-11-10T02:36:54.135Z,5.33
2017-11-10T02:37:54.116Z,5.3
2017-11-10T02:38:53.743Z,5.27
2017-11-10T02:39:54.054Z,5.28
2017-11-10T02:40:54.405Z,5.26
2017-11-10T02:41:54.028Z,5.2
2017-11-10T02:42:53.686Z,5.15
2017-11-10T02:43:54.000Z,5.18
2017-11-10T02:44:53.984Z,5.2
2017-11-10T02:45:53.985Z,5.15
2017-11-10T02:46:53.612Z,5.05
2017-11-10T02:47:53.602Z,5
2017-11-10T02:48:53.935Z,4.94
2017-11-10T02:49:53.912Z,4.9
2017-11-10T02:50:53.899Z,4.92
2017-11-10T02:51:53.885Z,4.85
2017-11-10T02:52:54.212Z,4.88
2017-11-10T02:53:54.229Z,4.78
2017-11-10T02:54:53.861Z,4.75
2017-11-10T02:55:53.835Z,4.69
2017-11-10T02:56:53.472Z,4.69
2017-11-10T02:57:53.800Z,4.68
2017-11-10T02:58:54.124Z,4.61
2017-11-10T02:59:54.129Z,4.61
2017-11-10T03:00:53.762Z,4.58
2017-11-10T03:01:54.106Z,4.64
2017-11-10T03:02:53.390Z,4.64
2017-11-10T03:03:53.713Z,4.6
2017-11-10T03:04:54.062Z,4.46
2017-11-10T03:05:53.342Z,4.5
2017-11-10T03:06:53.326Z,4.6
2017-11-10T03:07:53.329Z,4.47
2017-11-10T03:08:53.688Z,4.54
2017-11-10T03:09:53.282Z,4.54
2017-11-10T03:10:53.954Z,4.47
2017-11-10T03:11:53.594Z,4.42
2017-11-10T03:12:53.580Z,4.48
2017-11-10T03:13:53.224Z,4.42
2017-11-10T03:14:53.553Z,4.42
2017-11-10T03:15:53.200Z,4.42
2017-11-10T03:16:53.870Z,4.3
2017-11-10T03:17:53.505Z,4.36
2017-11-10T03:18:53.564Z,4.35
2017-11-10T03:19:53.134Z,4.29
2017-11-10T03:20:53.470Z,4.28
2017-11-10T03:21:53.826Z,4.22
2017-11-10T03:22:53.775Z,4.28
2017-11-10T03:23:53.797Z,4.32
2017-11-10T03:24:53.430Z,4.32
2017-11-10T03:25:53.059Z,4.35
2017-11-10T03:26:53.374Z,4.36
2017-11-10T03:27:53.360Z,4.35
2017-11-10T03:28:53.018Z,4.29
2017-11-10T03:29:53.339Z,4.29
2017-11-10T03:30:53.318Z,4.26
2017-11-10T03:31:53.661Z,4.28
2017-11-10T03:32:53.642Z,4.26
2017-11-10T03:33:53.267Z,4.3
2017-11-10T03:34:53.601Z,4.32
2017-11-10T03:35:53.238Z,4.36
2017-11-10T03:36:52.884Z,4.3
2017-11-10T03:37:52.868Z,4.29
2017-11-10T03:38:53.195Z,4.26
2017-11-10T03:39:53.185Z,4.32
2017-11-10T03:40:53.165Z,4.28
2017-11-10T03:41:52.810Z,4.32
2017-11-10T03:42:53.149Z,4.33
2017-11-10T03:43:52.785Z,4.22
2017-11-10T03:44:52.778Z,4.29
2017-11-10T03:45:53.112Z,4.3
2017-11-10T03:46:53.083Z,4.29
2017-11-10T03:47:53.098Z,4.3
2017-11-10T03:48:53.048Z,4.24
2017-11-10T03:49:53.373Z,4.29
2017-11-10T03:50:53.380Z,4.18
2017-11-10T03:51:53.349Z,4.32
2017-11-10T03:52:52.985Z,4.28
2017-11-10T03:53:52.968Z,4.3
2017-11-10T03:54:52.961Z,4.33
2017-11-10T03:55:52.599Z,4.3
2017-11-10T03:56:52.594Z,4.33
2017-11-10T03:57:52.915Z,4.39
2017-11-10T03:58:52.897Z,4.38
2017-11-10T03:59:52.547Z,4.47
2017-11-10T04:00:52.885Z,4.42
2017-11-10T04:01:52.855Z,4.46
2017-11-10T04:02:52.503Z,4.48
2017-11-10T04:03:52.821Z,4.47
2017-11-10T04:04:52.465Z,4.5
2017-11-10T04:05:53.146Z,4.5
2017-11-10T04:06:52.785Z,4.48
2017-11-10T04:07:52.761Z,4.53
2017-11-10T04:08:52.747Z,4.53
2017-11-10T04:09:52.420Z,4.5
2017-11-10T04:10:52.728Z,4.48
2017-11-10T04:11:53.056Z,4.5
2017-11-10T04:12:52.347Z,4.53
2017-11-10T04:13:52.686Z,4.5
2017-11-10T04:14:52.314Z,4.46
2017-11-10T04:15:52.645Z,4.46
2017-11-10T04:16:52.288Z,4.51
2017-11-10T04:17:52.271Z,4.48
2017-11-10T04:18:52.257Z,4.53
2017-11-10T04:19:52.585Z,4.47
2017-11-10T04:20:52.581Z,4.57
2017-11-10T04:21:52.553Z,4.47
2017-11-10T04:22:52.198Z,4.47
2017-11-10T04:23:52.525Z,4.5
2017-11-10T04:24:52.511Z,4.5
2017-11-10T04:25:52.845Z,4.46
2017-11-10T04:26:52.138Z,4.56
2017-11-10T04:27:52.122Z,4.57
2017-11-10T04:28:52.111Z,4.5
2017-11-10T04:29:52.091Z,4.46
2017-11-10T04:30:52.762Z,4.5
2017-11-10T04:31:52.062Z,4.47
2017-11-10T04:32:52.733Z,4.48
2017-11-10T04:33:52.383Z,4.5
2017-11-10T04:34:52.387Z,4.5
2017-11-10T04:35:52.354Z,4.46
2017-11-10T04:36:52.697Z,4.5
2017-11-10T04:37:52.317Z,4.51
2017-11-10T04:38:52.309Z,4.54
2017-11-10T04:39:52.628Z,4.51
2017-11-10T04:40:52.624Z,4.54
2017-11-10T04:41:52.600Z,4.57
2017-11-10T04:42:52.602Z,4.6
2017-11-10T04:43:52.229Z,4.61
2017-11-10T04:44:52.250Z,4.66
2017-11-10T04:45:52.569Z,4.64
2017-11-10T04:46:52.187Z,4.68
2017-11-10T04:47:52.181Z,4.79
2017-11-10T04:48:51.810Z,4.75
2017-11-10T04:49:51.797Z,4.75
2017-11-10T04:50:52.123Z,4.69
2017-11-10T04:51:51.767Z,4.76
2017-11-10T04:52:51.750Z,4.76
2017-11-10T04:53:52.432Z,4.74
2017-11-10T04:54:52.414Z,4.69
2017-11-10T04:55:51.707Z,4.74
2017-11-10T04:56:51.713Z,4.74
2017-11-10T04:57:52.021Z,4.76
2017-11-10T04:58:51.662Z,4.83
2017-11-10T04:59:51.647Z,4.83
2017-11-10T05:00:51.632Z,4.92
2017-11-10T05:01:51.635Z,4.87
2017-11-10T05:02:51.951Z,4.87
2017-11-10T05:03:51.934Z,4.9
2017-11-10T05:04:51.913Z,4.91
2017-11-10T05:05:51.558Z,4.91
2017-11-10T05:06:51.885Z,4.92
2017-11-10T05:07:51.871Z,4.91
2017-11-10T05:08:51.858Z,4.98
2017-11-10T05:09:51.499Z,4.91
2017-11-10T05:10:51.484Z,4.92
2017-11-10T05:11:52.159Z,4.92
2017-11-10T05:12:51.794Z,5.05
2017-11-10T05:13:51.783Z,5
2017-11-10T05:14:52.119Z,4.98
2017-11-10T05:15:52.107Z,4.91
2017-11-10T05:16:52.101Z,4.92
2017-11-10T05:17:52.105Z,4.94
2017-11-10T05:18:52.075Z,4.94
2017-11-10T05:19:51.354Z,4.95
2017-11-10T05:20:51.338Z,4.91
2017-11-10T05:21:52.028Z,4.92
2017-11-10T05:22:51.669Z,4.94
2017-11-10T05:23:51.316Z,4.94
2017-11-10T05:24:51.298Z,4.88
2017-11-10T05:25:51.624Z,4.97
2017-11-10T05:26:51.629Z,5.03
2017-11-10T05:27:51.579Z,4.94
2017-11-10T05:28:51.222Z,4.95
2017-11-10T05:29:51.890Z,4.97
2017-11-10T05:30:51.533Z,4.97
2017-11-10T05:31:51.883Z,4.95
2017-11-10T05:32:51.165Z,4.97
2017-11-10T05:33:51.171Z,4.97
2017-11-10T05:34:51.134Z,4.95
2017-11-10T05:35:51.124Z,5
2017-11-10T05:36:51.105Z,4.92
2017-11-10T05:37:51.445Z,5
2017-11-10T05:38:51.782Z,5
2017-11-10T05:39:51.063Z,4.94
2017-11-10T05:40:51.053Z,4.97
2017-11-10T05:41:51.031Z,4.97
2017-11-10T05:42:51.700Z,4.94
2017-11-10T05:43:51.004Z,4.94
2017-11-10T05:44:51.680Z,4.9
2017-11-10T05:45:51.326Z,4.95
2017-11-10T05:46:51.316Z,4.92
2017-11-10T05:47:50.960Z,4.92
2017-11-10T05:48:51.279Z,4.98
2017-11-10T05:49:51.606Z,4.94
2017-11-10T05:50:50.904Z,4.91
2017-11-10T05:51:51.232Z,4.95
2017-11-10T05:52:51.226Z,5
2017-11-10T05:53:51.542Z,4.94
2017-11-10T05:54:50.845Z,4.95
2017-11-10T05:55:51.190Z,4.94
2017-11-10T05:56:50.814Z,4.92
2017-11-10T05:57:51.512Z,4.94
2017-11-10T05:58:50.785Z,4.9
2017-11-10T05:59:51.129Z,4.92
2017-11-10T06:00:50.765Z,4.97
2017-11-10T06:01:50.742Z,4.94
2017-11-10T06:02:50.738Z,4.91
2017-11-10T06:03:51.409Z,4.84
2017-11-10T06:04:50.701Z,4.94
2017-11-10T06:05:50.687Z,4.88
2017-11-10T06:06:50.696Z,4.83
2017-11-10T06:07:51.009Z,4.79
2017-11-10T06:08:50.639Z,4.79
2017-11-10T06:09:50.980Z,4.9
2017-11-10T06:10:50.960Z,4.84
2017-11-10T06:11:50.940Z,4.78
2017-11-10T06:12:50.592Z,4.87
2017-11-10T06:13:50.909Z,4.75
2017-11-10T06:14:50.916Z,4.76
2017-11-10T06:15:50.882Z,4.74
2017-11-10T06:16:51.234Z,4.74
2017-11-10T06:17:51.199Z,4.76
2017-11-10T06:18:50.494Z,4.76
2017-11-10T06:19:50.500Z,4.85
2017-11-10T06:20:51.150Z,4.74
2017-11-10T06:21:50.450Z,4.76
2017-11-10T06:22:50.787Z,4.76
2017-11-10T06:23:50.774Z,4.79
2017-11-10T06:24:50.752Z,4.76
2017-11-10T06:25:50.736Z,4.79
2017-11-10T06:26:51.067Z,4.72
2017-11-10T06:27:50.376Z,4.75
2017-11-10T06:28:50.694Z,4.69
2017-11-10T06:29:50.675Z,4.66
2017-11-10T06:30:50.332Z,4.75
2017-11-10T06:31:50.645Z,4.74
2017-11-10T06:32:50.638Z,4.69
2017-11-10T06:33:50.273Z,4.68
2017-11-10T06:34:50.261Z,4.72
2017-11-10T06:35:50.597Z,4.65
2017-11-10T06:36:50.573Z,4.69
2017-11-10T06:37:50.559Z,4.72
2017-11-10T06:38:50.209Z,4.76
2017-11-10T06:39:50.546Z,4.74
2017-11-10T06:40:50.187Z,4.76
2017-11-10T06:41:50.855Z,4.75
2017-11-10T06:42:50.506Z,4.76
2017-11-10T06:43:50.127Z,4.76
2017-11-10T06:44:50.484Z,4.66
2017-11-10T06:45:50.099Z,4.78
2017-11-10T06:46:50.425Z,4.69
2017-11-10T06:47:50.425Z,4.69
2017-11-10T06:48:50.406Z,4.68
2017-11-10T06:49:50.381Z,4.79
2017-11-10T06:50:50.400Z,4.69
2017-11-10T06:51:50.008Z,4.74
2017-11-10T06:52:50.339Z,4.83
2017-11-10T06:53:50.682Z,4.83
2017-11-10T06:54:50.306Z,4.76
2017-11-10T06:55:50.292Z,4.76
2017-11-10T06:56:49.934Z,4.74
2017-11-10T06:57:49.940Z,4.71
2017-11-10T06:58:50.249Z,4.75
2017-11-10T06:59:49.892Z,4.76
2017-11-10T07:00:50.582Z,4.76
2017-11-10T07:01:50.239Z,4.75
2017-11-10T07:02:49.867Z,4.78
2017-11-10T07:03:49.834Z,4.79
2017-11-10T07:04:50.161Z,4.75
2017-11-10T07:05:50.145Z,4.69
2017-11-10T07:06:50.130Z,4.68
2017-11-10T07:07:50.144Z,4.66
2017-11-10T07:08:49.774Z,4.69
2017-11-10T07:09:49.747Z,4.75
2017-11-10T07:10:49.734Z,4.75
2017-11-10T07:11:50.073Z,4.72
2017-11-10T07:12:49.704Z,4.69
2017-11-10T07:13:50.028Z,4.71
2017-11-10T07:14:49.671Z,4.69
2017-11-10T07:15:50.048Z,4.71
2017-11-10T07:16:50.337Z,4.75
2017-11-10T07:17:49.969Z,4.69
2017-11-10T07:18:49.955Z,4.69
2017-11-10T07:19:49.969Z,4.75
2017-11-10T07:20:49.583Z,4.83
2017-11-10T07:21:49.923Z,4.69
2017-11-10T07:22:49.555Z,4.69
2017-11-10T07:23:49.553Z,4.72
2017-11-10T07:24:50.217Z,4.71
2017-11-10T07:25:49.510Z,4.69
2017-11-10T07:26:49.840Z,4.66
2017-11-10T07:27:49.823Z,4.66
2017-11-10T07:28:49.471Z,4.75
2017-11-10T07:29:49.792Z,4.65
2017-11-10T07:30:50.149Z,4.72
2017-11-10T07:31:49.422Z,4.66
2017-11-10T07:32:49.750Z,4.68
2017-11-10T07:33:49.731Z,4.61
2017-11-10T07:34:49.379Z,4.66
2017-11-10T07:35:49.362Z,4.6
2017-11-10T07:36:49.699Z,4.6
2017-11-10T07:37:50.022Z,4.64
2017-11-10T07:38:49.667Z,4.61
2017-11-10T07:39:49.991Z,4.6
2017-11-10T07:40:49.994Z,4.58
2017-11-10T07:41:49.642Z,4.61
2017-11-10T07:42:49.615Z,4.57
2017-11-10T07:43:49.606Z,4.54
2017-11-10T07:44:49.248Z,4.6
2017-11-10T07:45:49.217Z,4.51
2017-11-10T07:46:49.884Z,4.58
2017-11-10T07:47:49.537Z,4.58
2017-11-10T07:48:49.542Z,4.56
2017-11-10T07:49:49.504Z,4.53
2017-11-10T07:50:49.486Z,4.51
2017-11-10T07:51:49.826Z,4.6
2017-11-10T07:52:49.461Z,4.48
2017-11-10T07:53:49.094Z,4.42
2017-11-10T07:54:49.082Z,4.5
2017-11-10T07:55:49.764Z,4.51
2017-11-10T07:56:49.066Z,4.51
2017-11-10T07:57:49.377Z,4.46
2017-11-10T07:58:49.387Z,4.5
2017-11-10T07:59:49.013Z,4.53
2017-11-10T08:00:49.337Z,4.48
2017-11-10T08:01:49.039Z,4.5
2017-11-10T08:02:49.308Z,4.54
2017-11-10T08:03:49.657Z,4.47
2017-11-10T08:04:48.940Z,4.53
2017-11-10T08:05:48.917Z,4.54
2017-11-10T08:06:49.282Z,4.56
2017-11-10T08:07:48.889Z,4.53
2017-11-10T08:08:49.283Z,4.6
2017-11-10T08:09:49.585Z,4.53
2017-11-10T08:10:49.528Z,4.56
2017-11-10T08:11:49.181Z,4.5
2017-11-10T08:12:49.157Z,4.46
2017-11-10T08:13:49.143Z,4.54
2017-11-10T08:14:48.785Z,4.47
2017-11-10T08:15:49.464Z,4.5
2017-11-10T08:16:49.095Z,4.46
2017-11-10T08:17:49.102Z,4.54
2017-11-10T08:18:48.722Z,4.4
2017-11-10T08:19:48.712Z,4.53
2017-11-10T08:20:49.040Z,4.56
2017-11-10T08:21:49.366Z,4.53
2017-11-10T08:22:49.013Z,4.46
2017-11-10T08:23:48.993Z,4.53
2017-11-10T08:24:48.990Z,4.57
2017-11-10T08:25:48.638Z,4.46
2017-11-10T08:26:48.603Z,4.51
2017-11-10T08:27:49.282Z,4.53
2017-11-10T08:28:48.580Z,4.48
2017-11-10T08:29:48.903Z,4.46
2017-11-10T08:30:48.546Z,4.5
2017-11-10T08:31:48.885Z,4.58
2017-11-10T08:32:48.519Z,4.53
2017-11-10T08:33:48.872Z,4.54
2017-11-10T08:34:48.495Z,4.5
2017-11-10T08:35:48.824Z,4.5
2017-11-10T08:36:48.471Z,4.54
2017-11-10T08:37:48.443Z,4.42
2017-11-10T08:38:48.427Z,4.47
2017-11-10T08:39:48.418Z,4.51
2017-11-10T08:40:49.080Z,4.65
2017-11-10T08:41:48.728Z,4.6
2017-11-10T08:42:48.710Z,4.51
2017-11-10T08:43:48.714Z,4.56
2017-11-10T08:44:48.682Z,4.56
2017-11-10T08:45:48.326Z,4.64
2017-11-10T08:46:48.309Z,4.61
2017-11-10T08:47:48.637Z,4.64
2017-11-10T08:48:48.624Z,4.61
2017-11-10T08:49:48.632Z,4.61
2017-11-10T08:50:48.599Z,4.65
2017-11-10T08:51:48.249Z,4.61
2017-11-10T08:52:48.565Z,4.61
2017-11-10T08:53:48.563Z,4.6
2017-11-10T08:54:48.192Z,4.64
2017-11-10T08:55:48.517Z,4.66
2017-11-10T08:56:48.518Z,4.68
2017-11-10T08:57:48.144Z,4.65
2017-11-10T08:58:48.504Z,4.65
2017-11-10T08:59:48.116Z,4.68
2017-11-10T09:00:48.446Z,4.71
2017-11-10T09:01:48.430Z,4.69
2017-11-10T09:02:48.415Z,4.78
2017-11-10T09:03:48.059Z,4.69
2017-11-10T09:04:48.057Z,4.68
2017-11-10T09:05:48.391Z,4.71
2017-11-10T09:06:48.382Z,4.64
2017-11-10T09:07:48.695Z,4.69
2017-11-10T09:08:47.990Z,4.65
2017-11-10T09:09:47.987Z,4.64
2017-11-10T09:10:48.445Z,4.68
2017-11-10T09:11:48.283Z,4.72
2017-11-10T09:12:47.926Z,4.76
2017-11-10T09:13:48.252Z,4.64
2017-11-10T09:14:47.932Z,4.66
2017-11-10T09:15:48.225Z,4.61
2017-11-10T09:16:48.221Z,4.64
2017-11-10T09:17:48.205Z,4.64
2017-11-10T09:18:47.837Z,4.46
2017-11-10T09:19:48.559Z,4.47
2017-11-10T09:20:48.492Z,4.56
2017-11-10T09:21:48.492Z,4.47
2017-11-10T09:22:48.134Z,4.51
2017-11-10T09:23:48.468Z,4.48
2017-11-10T09:24:47.750Z,4.54
2017-11-10T09:25:48.078Z,4.6
2017-11-10T09:26:48.082Z,4.61
2017-11-10T09:27:48.046Z,4.57
2017-11-10T09:28:48.032Z,4.64
2017-11-10T09:29:48.040Z,4.65
2017-11-10T09:30:48.005Z,4.61
2017-11-10T09:31:47.647Z,4.61
2017-11-10T09:32:47.630Z,4.72
2017-11-10T09:33:47.617Z,4.65
2017-11-10T09:34:47.946Z,4.68
2017-11-10T09:35:48.271Z,4.68
2017-11-10T09:36:47.944Z,4.74
2017-11-10T09:37:47.559Z,4.75
2017-11-10T09:38:47.914Z,4.66
2017-11-10T09:39:48.225Z,4.69
2017-11-10T09:40:47.857Z,4.65
2017-11-10T09:41:47.875Z,4.68
2017-11-10T09:42:47.483Z,4.69
2017-11-10T09:43:48.201Z,4.64
2017-11-10T09:44:47.471Z,4.68
2017-11-10T09:45:47.440Z,4.72
2017-11-10T09:46:48.113Z,4.66
2017-11-10T09:47:47.752Z,4.68
2017-11-10T09:48:47.397Z,4.66
2017-11-10T09:49:47.725Z,4.65
2017-11-10T09:50:47.727Z,4.68
2017-11-10T09:51:47.354Z,4.65
2017-11-10T09:52:47.712Z,4.66
2017-11-10T09:53:47.325Z,4.65
2017-11-10T09:54:48.013Z,4.69
2017-11-10T09:55:47.295Z,4.75
2017-11-10T09:56:47.626Z,4.83
2017-11-10T09:57:47.632Z,4.75
2017-11-10T09:58:47.600Z,4.76
2017-11-10T09:59:47.946Z,4.76
2017-11-10T10:00:47.568Z,4.88
2017-11-10T10:01:47.546Z,4.79
2017-11-10T10:02:47.212Z,4.83
2017-11-10T10:03:47.532Z,4.9
2017-11-10T10:04:47.853Z,4.85
2017-11-10T10:05:47.504Z,4.88
2017-11-10T10:06:47.138Z,4.85
2017-11-10T10:07:47.811Z,4.91
2017-11-10T10:08:47.801Z,4.9
2017-11-10T10:09:47.790Z,4.92
2017-11-10T10:10:47.781Z,4.91
2017-11-10T10:11:47.785Z,4.97
2017-11-10T10:12:47.388Z,4.91
2017-11-10T10:13:47.383Z,4.92
2017-11-10T10:14:47.369Z,4.9
2017-11-10T10:15:47.346Z,4.9
2017-11-10T10:16:46.994Z,4.94
2017-11-10T10:17:46.973Z,4.97
2017-11-10T10:18:47.300Z,4.91
2017-11-10T10:19:46.942Z,4.91
2017-11-10T10:20:46.927Z,4.91
2017-11-10T10:21:47.263Z,4.83
2017-11-10T10:22:47.244Z,4.74
2017-11-10T10:23:46.887Z,4.76
2017-11-10T10:24:46.868Z,4.69
2017-11-10T10:25:47.550Z,4.64
2017-11-10T10:26:47.183Z,4.66
2017-11-10T10:27:46.828Z,4.68
2017-11-10T10:28:47.496Z,4.64
2017-11-10T10:29:47.143Z,4.61
2017-11-10T10:30:46.786Z,4.68
2017-11-10T10:31:46.775Z,4.61
2017-11-10T10:32:47.096Z,4.66
2017-11-10T10:33:47.086Z,4.64
2017-11-10T10:34:46.725Z,4.57
2017-11-10T10:35:47.075Z,4.6
2017-11-10T10:36:46.695Z,4.58
2017-11-10T10:37:46.678Z,4.61
2017-11-10T10:38:46.686Z,4.58
2017-11-10T10:39:47.339Z,4.64
2017-11-10T10:40:46.982Z,4.57
2017-11-10T10:41:46.967Z,4.64
2017-11-10T10:42:46.951Z,4.6
2017-11-10T10:43:47.286Z,4.68
2017-11-10T10:44:46.577Z,4.68
2017-11-10T10:45:47.251Z,4.65
2017-11-10T10:46:46.890Z,4.68
2017-11-10T10:47:47.217Z,4.71
2017-11-10T10:48:46.538Z,4.79
2017-11-10T10:49:46.848Z,4.78
2017-11-10T10:50:46.854Z,4.71
2017-11-10T10:51:46.855Z,4.71
2017-11-10T10:52:46.800Z,4.74
2017-11-10T10:53:46.458Z,4.79
2017-11-10T10:54:46.432Z,4.79
2017-11-10T10:55:46.774Z,4.75
2017-11-10T10:56:47.086Z,4.75
2017-11-10T10:57:47.108Z,4.71
2017-11-10T10:58:46.373Z,4.68
2017-11-10T10:59:46.356Z,4.74
2017-11-10T11:00:47.034Z,4.84
2017-11-10T11:01:46.327Z,4.74
2017-11-10T11:02:46.320Z,4.79
2017-11-10T11:03:46.642Z,4.79
2017-11-10T11:04:46.644Z,4.71
2017-11-10T11:05:46.973Z,4.69
2017-11-10T11:06:46.270Z,4.72
2017-11-10T11:07:46.929Z,4.75
2017-11-10T11:08:46.587Z,4.71
2017-11-10T11:09:46.573Z,4.87
2017-11-10T11:10:46.563Z,4.79
2017-11-10T11:11:46.525Z,4.85
2017-11-10T11:12:46.166Z,4.88
2017-11-10T11:13:46.515Z,4.95
2017-11-10T11:14:46.144Z,4.9
2017-11-10T11:15:46.836Z,4.98
2017-11-10T11:16:46.110Z,5
2017-11-10T11:17:46.794Z,4.98
2017-11-10T11:18:46.422Z,4.92
2017-11-10T11:19:46.749Z,4.98
2017-11-10T11:20:46.739Z,4.94
2017-11-10T11:21:46.036Z,4.92
2017-11-10T11:22:46.708Z,4.85
2017-11-10T11:23:46.691Z,4.9
2017-11-10T11:24:46.335Z,4.91
2017-11-10T11:25:46.323Z,4.88
2017-11-10T11:26:46.305Z,4.85
2017-11-10T11:27:46.295Z,4.91
2017-11-10T11:28:45.931Z,4.79
2017-11-10T11:29:46.266Z,4.79
2017-11-10T11:30:46.612Z,4.88
2017-11-10T11:31:46.592Z,4.78
2017-11-10T11:32:45.882Z,4.75
2017-11-10T11:33:46.249Z,4.69
2017-11-10T11:34:45.851Z,4.69
2017-11-10T11:35:46.175Z,4.66
2017-11-10T11:36:45.837Z,4.72
2017-11-10T11:37:45.809Z,4.68
2017-11-10T11:38:45.815Z,4.68
2017-11-10T11:39:46.118Z,4.71
2017-11-10T11:40:46.110Z,4.65
2017-11-10T11:41:46.101Z,4.71
2017-11-10T11:42:45.731Z,4.71
2017-11-10T11:43:46.058Z,4.66
2017-11-10T11:44:46.059Z,4.61
2017-11-10T11:45:46.374Z,4.69
2017-11-10T11:46:46.026Z,4.6
2017-11-10T11:47:45.654Z,4.66
2017-11-10T11:48:45.645Z,4.68
2017-11-10T11:49:45.974Z,4.69
2017-11-10T11:50:45.614Z,4.68
2017-11-10T11:51:45.957Z,4.79
2017-11-10T11:52:45.594Z,4.72
2017-11-10T11:53:45.910Z,4.91
2017-11-10T11:54:45.895Z,4.9
2017-11-10T11:55:45.554Z,4.83
2017-11-10T11:56:45.874Z,4.76
2017-11-10T11:57:45.886Z,4.84
2017-11-10T11:58:45.500Z,4.72
2017-11-10T11:59:45.824Z,4.79
2017-11-10T12:00:46.157Z,4.68
2017-11-10T12:01:45.793Z,4.68
2017-11-10T12:02:45.439Z,4.68
2017-11-10T12:03:45.425Z,4.68
2017-11-10T12:04:45.406Z,4.6
2017-11-10T12:05:46.075Z,4.72
2017-11-10T12:06:45.722Z,4.68
2017-11-10T12:07:45.366Z,4.72
2017-11-10T12:08:45.692Z,4.69
2017-11-10T12:09:45.676Z,4.68
2017-11-10T12:10:45.679Z,4.74
2017-11-10T12:11:45.306Z,4.72
2017-11-10T12:12:45.311Z,4.69
2017-11-10T12:13:45.636Z,4.78
2017-11-10T12:14:45.261Z,4.75
2017-11-10T12:15:45.600Z,4.75
2017-11-10T12:16:45.928Z,4.76
2017-11-10T12:17:45.559Z,4.76
2017-11-10T12:18:45.204Z,4.71
2017-11-10T12:19:45.536Z,4.83
2017-11-10T12:20:45.529Z,4.75
2017-11-10T12:21:45.189Z,4.78
2017-11-10T12:22:45.163Z,4.78
2017-11-10T12:23:45.473Z,4.74
2017-11-10T12:24:45.480Z,4.72
2017-11-10T12:25:45.101Z,4.74
2017-11-10T12:26:45.087Z,4.78
2017-11-10T12:27:45.095Z,4.84
2017-11-10T12:28:45.789Z,4.78
2017-11-10T12:29:45.400Z,4.79
2017-11-10T12:30:45.063Z,4.9
2017-11-10T12:31:45.017Z,4.83
2017-11-10T12:32:45.755Z,4.91
2017-11-10T12:33:45.673Z,4.92
2017-11-10T12:34:44.970Z,4.92
2017-11-10T12:35:45.299Z,4.87
2017-11-10T12:36:45.279Z,4.76
2017-11-10T12:37:44.927Z,4.92
2017-11-10T12:38:44.913Z,4.85
2017-11-10T12:39:45.264Z,4.76
2017-11-10T12:40:44.893Z,4.85
2017-11-10T12:41:44.920Z,4.84
2017-11-10T12:42:45.538Z,4.71
2017-11-10T12:43:45.540Z,4.66
2017-11-10T12:44:45.522Z,4.68
2017-11-10T12:45:44.826Z,4.69
2017-11-10T12:46:45.139Z,4.66
2017-11-10T12:47:45.141Z,4.68
2017-11-10T12:48:45.107Z,4.61
2017-11-10T12:49:45.090Z,4.6
2017-11-10T12:50:59.745Z,4.64
2017-11-10T12:51:44.807Z,4.56
2017-11-10T12:52:44.821Z,4.64
2017-11-10T12:53:44.929Z,4.66
2017-11-10T12:54:44.983Z,4.66
2017-11-10T12:55:45.813Z,4.71
2017-11-10T12:56:45.279Z,4.64
2017-11-10T12:57:45.237Z,4.64
2017-11-10T12:58:45.220Z,4.65
2017-11-10T12:59:44.740Z,4.68
2017-11-10T13:00:45.638Z,4.68
2017-11-10T13:01:45.668Z,4.71
2017-11-10T13:02:45.124Z,4.71
2017-11-10T13:03:45.448Z,4.66
2017-11-10T13:04:45.210Z,4.68
2017-11-10T13:05:45.110Z,4.69
2017-11-10T13:06:44.499Z,4.74
2017-11-10T13:07:45.185Z,4.75
2017-11-10T13:08:44.811Z,4.87
2017-11-10T13:09:44.800Z,4.84
2017-11-10T13:10:44.439Z,4.9
2017-11-10T13:11:44.786Z,4.79
2017-11-10T13:12:44.772Z,4.87
2017-11-10T13:13:44.743Z,4.87
2017-11-10T13:14:44.408Z,4.83
2017-11-10T13:15:44.707Z,4.84
2017-11-10T13:16:44.352Z,4.87
2017-11-10T13:17:44.734Z,4.76
2017-11-10T13:18:44.667Z,4.84
2017-11-10T13:19:44.308Z,4.87
2017-11-10T13:20:44.637Z,4.76
2017-11-10T13:21:44.621Z,4.83